Time;durP1;ratioP1;P1;durP2;ratioP2;P2;SDS_P1;SDS_P2;PMS_P1;PMS_P2;Temp;Humidity;BMP_temperature;BMP_pressure;BME280_temperature;BME280_humidity;BME280_pressure;Samples;Min_cycle;Max_cycle;Signal;HPM_P1;HPM_P2
2022/11/25 00:02:21;;;;;;;6.80;4.05;;;25.70;99.90;;;;;;5072677;28;20206;-81
2022/11/25 00:04:52;;;;;;;10.60;4.20;;;25.70;99.90;;;;;;5059256;28;20300;-80
2022/11/25 00:07:22;;;;;;;8.10;4.07;;;25.40;99.90;;;;;;5051188;28;20204;-80
2022/11/25 00:09:53;;;;;;;10.52;4.22;;;25.30;99.90;;;;;;5067654;28;20218;-80
2022/11/25 00:12:24;;;;;;;9.15;4.25;;;25.20;99.90;;;;;;5055768;28;20205;-80
2022/11/25 00:14:56;;;;;;;8.95;4.13;;;25.10;99.90;;;;;;5051554;28;20275;-81
2022/11/25 00:17:29;;;;;;;8.00;4.18;;;25.00;99.90;;;;;;5045925;28;20864;-81
2022/11/25 00:20:00;;;;;;;10.45;3.90;;;24.90;99.90;;;;;;5046046;28;20212;-81
2022/11/25 00:22:31;;;;;;;7.95;3.72;;;24.90;99.90;;;;;;5042375;28;20207;-81
2022/11/25 00:25:03;;;;;;;9.82;4.07;;;24.70;99.90;;;;;;5045608;28;20224;-81
2022/11/25 00:27:34;;;;;;;10.55;4.28;;;24.90;99.90;;;;;;5046297;28;20636;-80
2022/11/25 00:30:06;;;;;;;10.10;4.18;;;25.10;99.90;;;;;;5044079;28;20224;-80
2022/11/25 00:32:39;;;;;;;9.80;4.00;;;25.20;99.90;;;;;;5050824;28;20195;-80
2022/11/25 00:35:10;;;;;;;8.20;3.80;;;25.50;99.90;;;;;;5068383;28;20196;-80
2022/11/25 00:37:41;;;;;;;11.15;3.97;;;25.70;99.90;;;;;;5065679;28;20230;-80
2022/11/25 00:40:13;;;;;;;6.53;3.80;;;25.60;99.90;;;;;;5064072;28;20287;-80
2022/11/25 00:45:30;;;;;;;6.07;3.63;;;25.50;99.90;;;;;;5059464;28;20199;-81
2022/11/25 00:48:03;;;;;;;7.30;3.75;;;25.70;99.90;;;;;;5068595;28;20224;-80
2022/11/25 00:50:34;;;;;;;7.95;3.63;;;25.80;99.90;;;;;;5052456;28;20306;-81
2022/11/25 00:53:07;;;;;;;8.70;4.03;;;26.00;99.90;;;;;;5057712;28;20216;-82
2022/11/25 00:58:22;;;;;;;7.85;3.78;;;25.80;99.90;;;;;;5058865;28;20195;-82
2022/11/25 01:00:53;;;;;;;7.93;3.60;;;25.80;99.90;;;;;;5064551;28;20725;-81
2022/11/25 01:03:26;;;;;;;10.70;3.60;;;25.80;99.90;;;;;;5070695;28;20183;-83
2022/11/25 01:06:02;;;;;;;9.45;4.13;;;25.70;99.90;;;;;;5065191;28;20379;-83
2022/11/25 01:08:33;;;;;;;12.75;4.20;;;25.60;99.90;;;;;;5062226;28;20191;-83
2022/11/25 01:11:06;;;;;;;7.95;3.75;;;25.40;99.90;;;;;;5062460;28;20300;-83
2022/11/25 01:13:37;;;;;;;9.95;3.60;;;25.40;99.90;;;;;;5062037;28;20590;-82
2022/11/25 01:16:10;;;;;;;5.47;3.53;;;25.30;99.90;;;;;;5062839;28;20596;-82
2022/11/25 01:18:43;;;;;;;7.10;4.18;;;25.20;99.90;;;;;;5063926;28;20272;-82
2022/11/25 01:21:16;;;;;;;12.10;4.40;;;25.20;99.90;;;;;;5062363;28;20292;-83
2022/11/25 01:23:47;;;;;;;9.35;4.30;;;25.10;99.90;;;;;;5067793;28;20195;-83
2022/11/25 01:26:20;;;;;;;7.82;4.35;;;25.20;99.90;;;;;;5058758;28;20304;-83
2022/11/25 01:28:55;;;;;;;6.95;4.00;;;25.20;99.90;;;;;;5064252;28;20228;-81
2022/11/25 01:31:27;;;;;;;7.32;4.50;;;25.50;99.90;;;;;;5059613;28;20278;-79
2022/11/25 01:34:01;;;;;;;8.02;3.70;;;25.70;99.90;;;;;;5060808;28;20528;-82
2022/11/25 01:36:32;;;;;;;6.90;4.30;;;25.70;99.90;;;;;;5062818;28;20219;-82
2022/11/25 01:39:03;;;;;;;6.55;3.40;;;25.80;99.90;;;;;;5060701;28;20216;-81
2022/11/25 01:41:35;;;;;;;6.05;3.80;;;25.80;99.90;;;;;;5071560;28;20224;-82
2022/11/25 01:44:14;;;;;;;5.90;3.30;;;25.80;99.90;;;;;;5073199;28;20557;-82
2022/11/25 01:47:03;;;;;;;6.38;3.05;;;25.90;99.90;;;;;;5071615;28;20215;-81
2022/11/25 01:49:40;;;;;;;7.22;3.58;;;25.80;99.90;;;;;;5057141;28;20300;-81
2022/11/25 01:52:18;;;;;;;8.95;2.92;;;25.70;99.90;;;;;;5058649;28;20207;-81
2022/11/25 01:54:54;;;;;;;7.30;2.70;;;25.70;99.90;;;;;;5072912;28;20235;-80
2022/11/25 01:57:29;;;;;;;10.07;2.80;;;25.80;99.90;;;;;;5059105;28;20238;-81
2022/11/25 02:00:05;;;;;;;8.75;2.80;;;25.90;99.90;;;;;;5053924;28;20199;-80
2022/11/25 02:02:37;;;;;;;5.47;2.90;;;25.80;99.90;;;;;;5059748;28;20203;-79
2022/11/25 02:05:12;;;;;;;6.70;3.10;;;25.80;99.90;;;;;;5062624;28;20228;-81
2022/11/25 02:07:46;;;;;;;6.45;2.97;;;26.00;99.90;;;;;;5064169;28;20223;-82
2022/11/25 02:10:23;;;;;;;7.68;2.80;;;26.10;99.90;;;;;;5070003;28;20302;-81
2022/11/25 02:12:55;;;;;;;6.28;2.75;;;25.90;99.90;;;;;;5069383;28;20710;-82
2022/11/25 02:15:26;;;;;;;4.95;2.50;;;25.90;99.90;;;;;;5063822;28;20207;-82
2022/11/25 02:17:57;;;;;;;6.45;2.60;;;25.80;99.90;;;;;;5062270;28;20242;-82
2022/11/25 02:20:32;;;;;;;7.68;3.15;;;25.70;99.90;;;;;;5068793;28;20199;-81
2022/11/25 02:23:09;;;;;;;8.68;3.08;;;25.80;99.90;;;;;;5068087;28;20214;-80
2022/11/25 02:25:43;;;;;;;9.38;2.88;;;26.00;99.90;;;;;;5072903;28;20684;-81
2022/11/25 02:28:18;;;;;;;6.05;3.15;;;25.80;99.90;;;;;;5059557;28;20202;-81
2022/11/25 02:30:50;;;;;;;4.72;2.58;;;25.90;99.90;;;;;;5058848;28;20709;-82
2022/11/25 02:33:21;;;;;;;6.30;2.35;;;26.10;99.90;;;;;;5070331;28;20247;-81
2022/11/25 02:35:56;;;;;;;5.82;2.67;;;26.10;99.90;;;;;;5076244;28;20212;-81
2022/11/25 02:38:32;;;;;;;7.50;2.85;;;26.30;99.90;;;;;;5073551;28;20230;-81
2022/11/25 02:41:09;;;;;;;8.07;3.08;;;26.30;99.90;;;;;;5076189;28;20525;-81
2022/11/25 02:43:40;;;;;;;7.38;2.70;;;26.40;99.90;;;;;;5075185;28;20202;-81
2022/11/25 02:46:13;;;;;;;10.77;3.15;;;26.40;99.90;;;;;;5076199;28;20203;-81
2022/11/25 02:48:45;;;;;;;7.15;3.33;;;25.90;99.90;;;;;;5072902;28;20298;-82
2022/11/25 02:51:18;;;;;;;7.20;3.00;;;25.80;99.90;;;;;;5069693;28;20206;-83
2022/11/25 02:53:49;;;;;;;6.07;2.90;;;25.80;99.90;;;;;;5068315;28;20231;-82
2022/11/25 02:56:23;;;;;;;6.85;3.03;;;25.80;99.90;;;;;;5073450;28;20344;-82
2022/11/25 02:58:54;;;;;;;5.05;2.67;;;26.00;99.90;;;;;;5073064;28;20584;-84
2022/11/25 03:01:24;;;;;;;6.40;2.70;;;26.00;99.90;;;;;;5071658;28;20238;-83
2022/11/25 03:03:55;;;;;;;7.07;2.90;;;26.20;99.90;;;;;;5073660;28;20194;-82
2022/11/25 03:06:26;;;;;;;4.55;2.78;;;26.30;99.90;;;;;;5088006;28;20200;-84
2022/11/25 03:08:58;;;;;;;7.43;2.60;;;26.40;99.90;;;;;;5072370;28;20200;-83
2022/11/25 03:14:17;;;;;;;8.82;2.53;;;26.30;99.90;;;;;;5065678;28;20199;-82
2022/11/25 03:16:49;;;;;;;8.50;2.45;;;26.50;99.90;;;;;;5070501;28;20223;-82
2022/11/25 03:19:20;;;;;;;5.75;2.30;;;26.80;99.90;;;;;;5064456;28;20200;-83
2022/11/25 03:21:51;;;;;;;5.32;2.33;;;26.60;99.90;;;;;;5071765;28;20229;-82
2022/11/25 03:24:22;;;;;;;8.52;2.65;;;26.50;99.90;;;;;;5064662;28;20192;-82
2022/11/25 03:26:55;;;;;;;8.38;2.47;;;26.50;99.90;;;;;;5071590;28;20704;-81
2022/11/25 03:29:25;;;;;;;8.85;2.33;;;26.80;99.90;;;;;;5070530;28;20659;-81
2022/11/25 03:31:56;;;;;;;8.70;2.65;;;26.70;99.90;;;;;;5071073;28;20667;-81
2022/11/25 03:34:27;;;;;;;5.82;2.70;;;26.80;99.90;;;;;;5067245;28;20712;-81
2022/11/25 03:36:58;;;;;;;6.28;2.38;;;26.80;99.90;;;;;;5067978;28;20582;-83
2022/11/25 03:39:29;;;;;;;3.88;1.88;;;26.90;99.90;;;;;;5070973;28;20234;-82
2022/11/25 03:42:02;;;;;;;8.02;2.20;;;26.90;99.90;;;;;;5072262;28;20207;-81
2022/11/25 03:44:33;;;;;;;6.40;2.22;;;26.80;99.90;;;;;;5070100;28;20200;-81
2022/11/25 03:47:04;;;;;;;5.25;2.30;;;26.80;99.90;;;;;;5059598;28;20204;-82
2022/11/25 03:49:35;;;;;;;5.50;2.08;;;26.70;99.90;;;;;;5070839;28;20200;-82
2022/11/25 03:52:06;;;;;;;7.15;2.20;;;26.80;99.90;;;;;;5065842;28;21991;-82
2022/11/25 03:54:37;;;;;;;6.15;1.92;;;26.90;99.90;;;;;;5071419;28;20220;-82
2022/11/25 03:57:10;;;;;;;4.78;2.10;;;27.10;99.90;;;;;;5071575;28;20228;-82
2022/11/25 03:59:40;;;;;;;6.45;1.70;;;27.10;99.90;;;;;;5071641;28;20196;-81
2022/11/25 04:02:11;;;;;;;4.70;2.03;;;27.00;99.90;;;;;;5064632;28;20221;-81
2022/11/25 04:04:42;;;;;;;8.70;2.20;;;27.10;99.90;;;;;;5071300;28;20203;-81
2022/11/25 04:07:13;;;;;;;4.82;2.22;;;27.00;99.90;;;;;;5070867;28;20227;-81
2022/11/25 04:09:43;;;;;;;6.55;2.08;;;26.70;99.90;;;;;;5064718;28;20200;-82
2022/11/25 04:15:02;;;;;;;4.15;2.13;;;26.60;99.90;;;;;;5039772;28;20682;-81
2022/11/25 04:17:34;;;;;;;3.92;2.00;;;26.80;99.90;;;;;;5053246;28;20225;-81
2022/11/25 04:20:05;;;;;;;8.23;2.33;;;26.90;99.90;;;;;;5071605;28;20551;-81
2022/11/25 04:22:36;;;;;;;4.95;2.00;;;27.10;99.90;;;;;;5073831;28;20896;-82
2022/11/25 04:25:08;;;;;;;6.03;2.28;;;27.10;99.90;;;;;;5071874;28;20210;-81
2022/11/25 04:27:41;;;;;;;6.38;2.28;;;27.10;99.90;;;;;;5053764;28;20224;-82
2022/11/25 04:30:13;;;;;;;7.40;2.85;;;27.20;99.90;;;;;;5073661;28;20313;-82
2022/11/25 04:32:44;;;;;;;8.52;2.70;;;27.40;99.90;;;;;;5071022;28;20199;-83
2022/11/25 04:35:14;;;;;;;5.43;2.33;;;27.70;99.90;;;;;;5071318;28;20207;-82
2022/11/25 04:37:45;;;;;;;8.35;2.63;;;28.00;99.90;;;;;;5063488;28;20596;-83
2022/11/25 04:40:17;;;;;;;5.20;2.40;;;28.10;99.90;;;;;;5062686;28;20195;-83
2022/11/25 04:42:52;;;;;;;5.53;2.20;;;28.30;99.90;;;;;;5064838;28;20198;-83
2022/11/25 04:45:23;;;;;;;3.63;2.10;;;28.40;99.90;;;;;;5065928;28;20192;-84
2022/11/25 04:47:54;;;;;;;6.22;2.60;;;28.50;99.90;;;;;;5069469;28;20344;-83
2022/11/25 04:50:26;;;;;;;5.15;2.20;;;28.50;99.90;;;;;;5061931;28;20573;-84
2022/11/25 04:52:57;;;;;;;3.80;2.35;;;28.40;99.90;;;;;;5069308;28;20196;-83
2022/11/25 04:55:28;;;;;;;9.35;2.30;;;28.40;99.90;;;;;;5066326;28;20193;-84
2022/11/25 04:58:01;;;;;;;6.65;2.47;;;28.60;99.90;;;;;;5071575;28;20224;-83
2022/11/25 05:00:30;;;;;;;4.53;2.22;;;28.70;99.90;;;;;;5071332;28;20196;-83
2022/11/25 05:03:01;;;;;;;4.60;2.17;;;28.70;99.90;;;;;;5066496;28;20196;-83
2022/11/25 05:05:32;;;;;;;4.45;2.58;;;28.70;99.90;;;;;;5051958;28;20196;-82
2022/11/25 05:08:03;;;;;;;5.18;2.50;;;28.50;99.90;;;;;;5058199;28;20215;-82
2022/11/25 05:10:33;;;;;;;4.38;2.40;;;28.80;99.90;;;;;;5077010;28;20206;-82
2022/11/25 05:13:07;;;;;;;4.55;2.40;;;29.20;99.90;;;;;;5063408;28;20196;-81
2022/11/25 05:15:37;;;;;;;5.05;2.53;;;29.40;99.90;;;;;;5070530;28;20196;-82
2022/11/25 05:18:09;;;;;;;6.57;2.40;;;29.50;99.90;;;;;;5056450;28;20231;-82
2022/11/25 05:20:40;;;;;;;4.93;2.20;;;29.50;99.90;;;;;;5061698;28;20235;-82
2022/11/25 05:23:10;;;;;;;7.25;2.15;;;29.20;99.90;;;;;;5071733;28;20278;-82
2022/11/25 05:25:41;;;;;;;3.80;2.08;;;29.10;99.90;;;;;;5063307;28;20282;-83
2022/11/25 05:28:14;;;;;;;3.83;2.30;;;29.20;99.90;;;;;;5052435;28;20219;-82
2022/11/25 05:30:45;;;;;;;5.50;2.33;;;29.20;99.90;;;;;;5051012;28;20208;-82
2022/11/25 05:33:16;;;;;;;6.75;2.13;;;29.30;99.90;;;;;;5060863;28;20261;-82
2022/11/25 05:35:54;;;;;;;4.50;2.15;;;29.50;99.90;;;;;;5073777;28;20291;-83
2022/11/25 05:38:26;;;;;;;6.97;2.15;;;29.50;99.90;;;;;;5070587;28;20245;-82
2022/11/25 05:41:01;;;;;;;3.78;1.60;;;29.50;99.90;;;;;;5051112;28;20211;-83
2022/11/25 05:43:34;;;;;;;5.65;1.80;;;29.50;99.90;;;;;;5062511;28;20200;-82
2022/11/25 05:46:08;;;;;;;6.68;2.00;;;29.70;99.90;;;;;;5059511;28;20195;-81
2022/11/25 05:48:39;;;;;;;6.70;2.00;;;29.70;99.90;;;;;;5065331;28;21875;-83
2022/11/25 05:51:10;;;;;;;6.53;1.75;;;29.70;99.90;;;;;;5041374;28;20206;-83
2022/11/25 05:53:41;;;;;;;4.00;1.50;;;29.50;99.90;;;;;;5045767;28;20236;-85
2022/11/25 05:56:13;;;;;;;6.43;2.00;;;29.20;99.90;;;;;;5058117;28;20199;-84
2022/11/25 05:58:48;;;;;;;6.47;2.00;;;29.20;99.90;;;;;;5071758;28;20238;-83
2022/11/25 06:01:19;;;;;;;5.72;1.83;;;29.40;99.90;;;;;;5065973;28;20673;-83
2022/11/25 06:03:51;;;;;;;7.32;2.05;;;29.10;99.90;;;;;;5076445;28;20229;-82
2022/11/25 06:06:23;;;;;;;4.47;1.77;;;29.20;99.90;;;;;;5064313;28;20570;-84
2022/11/25 06:08:54;;;;;;;5.55;1.90;;;29.20;99.90;;;;;;5067645;28;20277;-85
2022/11/25 06:11:26;;;;;;;6.00;2.15;;;29.30;99.90;;;;;;5083184;28;20259;-83
2022/11/25 06:13:59;;;;;;;5.40;1.80;;;29.50;99.90;;;;;;5080038;28;20551;-83
2022/11/25 06:16:30;;;;;;;4.25;1.52;;;29.40;99.90;;;;;;5076468;28;20553;-83
2022/11/25 06:19:04;;;;;;;5.75;1.65;;;29.20;99.90;;;;;;5074806;28;20224;-84
2022/11/25 06:21:35;;;;;;;6.75;1.70;;;29.20;99.90;;;;;;5078437;28;20238;-81
2022/11/25 06:24:05;;;;;;;5.43;1.77;;;29.20;99.90;;;;;;5077224;28;20280;-81
2022/11/25 06:26:37;;;;;;;5.75;1.67;;;29.20;99.90;;;;;;5066426;28;20287;-82
2022/11/25 06:29:10;;;;;;;4.03;1.48;;;29.20;99.90;;;;;;5076014;28;20277;-82
2022/11/25 06:31:40;;;;;;;4.55;1.67;;;29.40;99.90;;;;;;5077847;28;20643;-82
2022/11/25 06:34:11;;;;;;;7.97;1.90;;;28.90;99.90;;;;;;5061151;28;20200;-82
2022/11/25 06:36:42;;;;;;;3.80;1.70;;;29.20;99.90;;;;;;5074182;28;20200;-83
2022/11/25 06:39:13;;;;;;;4.85;1.80;;;29.70;99.90;;;;;;5072538;28;20710;-82
2022/11/25 06:41:44;;;;;;;4.32;1.83;;;29.90;99.90;;;;;;5059390;28;20213;-82
2022/11/25 06:44:17;;;;;;;5.57;1.70;;;30.30;99.90;;;;;;5055258;28;20288;-82
2022/11/25 06:46:49;;;;;;;6.35;1.60;;;30.40;99.90;;;;;;5071983;28;20200;-81
2022/11/25 06:49:21;;;;;;;3.72;1.67;;;30.00;99.90;;;;;;5069308;28;20202;-82
2022/11/25 06:51:52;;;;;;;3.90;1.80;;;30.20;99.90;;;;;;5072579;28;20196;-82
2022/11/25 06:54:24;;;;;;;6.88;1.60;;;30.50;99.90;;;;;;5075618;28;20237;-82
2022/11/25 06:56:55;;;;;;;3.80;1.90;;;30.60;99.90;;;;;;5066115;28;20234;-82
2022/11/25 06:59:29;;;;;;;5.80;1.70;;;30.70;99.90;;;;;;5067792;28;20702;-82
2022/11/25 07:01:59;;;;;;;4.43;1.67;;;30.70;99.90;;;;;;5070886;28;20736;-82
2022/11/25 07:04:30;;;;;;;5.45;1.60;;;30.50;99.90;;;;;;5072051;28;20198;-82
2022/11/25 07:07:01;;;;;;;4.68;1.70;;;30.50;99.90;;;;;;5073817;28;20211;-82
2022/11/25 07:09:33;;;;;;;4.43;1.70;;;30.60;99.90;;;;;;5071671;28;20196;-82
2022/11/25 07:12:04;;;;;;;9.60;2.20;;;30.30;99.90;;;;;;5078231;28;20200;-84
2022/11/25 07:14:38;;;;;;;3.08;1.70;;;30.10;99.90;;;;;;5075447;28;20270;-82
2022/11/25 07:17:09;;;;;;;5.93;1.80;;;30.10;99.90;;;;;;5067429;28;20200;-82
2022/11/25 07:19:40;;;;;;;5.20;1.83;;;30.00;99.90;;;;;;5073655;28;20228;-82
2022/11/25 07:22:10;;;;;;;2.95;1.30;;;30.00;99.90;;;;;;5076528;28;20202;-83
2022/11/25 07:24:41;;;;;;;3.97;1.60;;;30.00;99.90;;;;;;5072556;28;20198;-82
2022/11/25 07:27:12;;;;;;;4.75;1.70;;;29.80;99.90;;;;;;5072435;28;20214;-82
2022/11/25 07:29:44;;;;;;;6.70;1.70;;;29.80;99.90;;;;;;5065808;28;20586;-83
2022/11/25 07:32:16;;;;;;;3.72;1.60;;;29.60;99.90;;;;;;5066785;28;20203;-83
2022/11/25 07:34:47;;;;;;;4.72;1.70;;;29.60;99.90;;;;;;5058355;28;20192;-82
2022/11/25 07:37:18;;;;;;;3.35;1.45;;;29.40;99.90;;;;;;5060900;28;20209;-82
2022/11/25 07:39:49;;;;;;;4.88;1.60;;;29.30;99.90;;;;;;5073631;28;20231;-84
2022/11/25 07:42:20;;;;;;;6.72;1.70;;;29.20;99.90;;;;;;5072013;28;20196;-83
2022/11/25 07:44:54;;;;;;;2.95;1.25;;;29.10;99.90;;;;;;5060311;28;20732;-82
2022/11/25 07:47:25;;;;;;;3.45;1.60;;;28.80;99.90;;;;;;5072782;28;20278;-83
2022/11/25 07:49:56;;;;;;;4.70;1.80;;;28.50;99.90;;;;;;5065106;28;20193;-82
2022/11/25 07:52:27;;;;;;;3.83;1.60;;;28.20;99.90;;;;;;5055187;28;20193;-81
2022/11/25 07:54:57;;;;;;;4.07;1.90;;;27.70;99.90;;;;;;5066293;28;20676;-82
2022/11/25 07:57:28;;;;;;;5.78;1.75;;;27.40;99.90;;;;;;5069908;28;20199;-83
2022/11/25 08:00:01;;;;;;;4.95;1.77;;;27.00;99.90;;;;;;5060735;28;20286;-83
2022/11/25 08:02:32;;;;;;;5.18;1.88;;;26.50;99.90;;;;;;5068692;28;20750;-82
2022/11/25 08:05:03;;;;;;;3.88;1.65;;;26.00;99.90;;;;;;5071780;28;20199;-82
2022/11/25 08:07:34;;;;;;;3.38;1.63;;;25.70;99.90;;;;;;5067632;28;20202;-82
2022/11/25 08:10:05;;;;;;;3.65;1.95;;;25.50;99.90;;;;;;5071316;28;20206;-83
2022/11/25 08:12:35;;;;;;;3.70;1.65;;;25.10;99.90;;;;;;5071373;28;20196;-83
2022/11/25 08:15:09;;;;;;;4.97;2.00;;;24.90;99.90;;;;;;5085772;28;20198;-83
2022/11/25 08:17:40;;;;;;;5.63;2.00;;;24.60;99.90;;;;;;5084334;28;20192;-83
2022/11/25 08:20:12;;;;;;;3.60;1.80;;;24.60;99.90;;;;;;5069676;28;20278;-83
2022/11/25 08:22:43;;;;;;;5.22;2.22;;;24.50;99.90;;;;;;5058239;28;20193;-83
2022/11/25 08:25:14;;;;;;;3.50;1.88;;;24.20;99.90;;;;;;5068381;28;20196;-82
2022/11/25 08:27:46;;;;;;;4.75;2.00;;;24.20;99.90;;;;;;5071751;28;20196;-85
2022/11/25 08:30:20;;;;;;;5.07;1.90;;;24.00;99.90;;;;;;5059713;28;20215;-84
2022/11/25 08:32:51;;;;;;;3.92;1.83;;;23.90;99.90;;;;;;5067491;28;20202;-83
2022/11/25 08:35:21;;;;;;;3.50;1.98;;;23.90;99.90;;;;;;5075518;28;20191;-84
2022/11/25 08:37:52;;;;;;;5.70;2.20;;;23.80;99.90;;;;;;5092908;28;20562;-84
2022/11/25 08:40:24;;;;;;;3.95;2.22;;;23.80;99.90;;;;;;5076463;28;20200;-84
2022/11/25 08:42:54;;;;;;;4.18;1.95;;;23.80;99.90;;;;;;5064261;28;20253;-84
2022/11/25 08:45:27;;;;;;;4.53;2.08;;;23.60;99.90;;;;;;5066019;28;20663;-83
2022/11/25 08:47:59;;;;;;;5.13;2.22;;;23.60;99.90;;;;;;5065423;28;20201;-83
2022/11/25 08:50:30;;;;;;;3.92;1.90;;;23.60;99.90;;;;;;5064412;28;20196;-84
2022/11/25 08:53:01;;;;;;;7.53;2.15;;;23.60;99.90;;;;;;5070336;28;20287;-84
2022/11/25 08:55:42;;;;;;;3.20;2.03;;;23.60;99.90;;;;;;5080940;28;20200;-84
2022/11/25 08:58:13;;;;;;;3.95;1.90;;;23.50;99.90;;;;;;5090838;28;20195;-85
2022/11/25 09:00:48;;;;;;;3.65;1.90;;;23.40;99.90;;;;;;5071100;28;20200;-86
2022/11/25 09:03:18;;;;;;;7.25;2.00;;;23.40;99.90;;;;;;5078992;28;20203;-85
2022/11/25 09:05:52;;;;;;;6.13;2.03;;;23.40;99.90;;;;;;5075252;28;20577;-85
2022/11/25 09:08:23;;;;;;;4.00;1.65;;;23.30;99.90;;;;;;5073703;28;20199;-85
2022/11/25 09:10:54;;;;;;;4.00;1.90;;;23.20;99.90;;;;;;5078176;28;20203;-85
2022/11/25 09:13:27;;;;;;;4.78;1.90;;;23.10;99.90;;;;;;5077153;28;20634;-82
2022/11/25 09:16:00;;;;;;;4.75;2.20;;;23.10;99.90;;;;;;5085254;28;20196;-84
2022/11/25 09:18:34;;;;;;;5.13;2.00;;;23.10;99.90;;;;;;5079694;28;20238;-84
2022/11/25 09:21:12;;;;;;;5.30;2.17;;;23.00;99.90;;;;;;5085012;28;20199;-82
2022/11/25 09:23:42;;;;;;;5.80;2.28;;;23.00;99.90;;;;;;5079863;28;20200;-81
2022/11/25 09:26:22;;;;;;;6.38;2.05;;;23.00;99.90;;;;;;5073433;28;20559;-82
2022/11/25 09:28:53;;;;;;;4.78;2.00;;;23.00;99.90;;;;;;5075534;28;20678;-82
2022/11/25 09:31:26;;;;;;;5.38;2.45;;;22.90;99.90;;;;;;5078683;28;20196;-82
2022/11/25 09:33:58;;;;;;;4.10;1.92;;;23.00;99.90;;;;;;5073787;28;20196;-82
2022/11/25 09:36:28;;;;;;;5.40;2.30;;;22.90;99.90;;;;;;5073370;28;20578;-82
2022/11/25 09:39:00;;;;;;;4.72;2.15;;;22.90;99.90;;;;;;5069087;28;20224;-83
2022/11/25 09:47:45;;;;;;;4.05;2.20;;;22.80;99.90;;;;;;5075728;28;20199;-82
2022/11/25 09:50:24;;;;;;;4.57;2.30;;;22.80;99.90;;;;;;5061826;28;20200;-82
2022/11/25 09:53:02;;;;;;;5.82;2.13;;;22.80;99.90;;;;;;5074415;28;20195;-82
2022/11/25 09:55:39;;;;;;;4.65;2.30;;;22.70;99.90;;;;;;5076229;28;20192;-83
2022/11/25 09:58:25;;;;;;;5.07;2.20;;;22.70;99.90;;;;;;5075647;28;20261;-83
2022/11/25 10:00:56;;;;;;;6.07;2.50;;;22.80;99.90;;;;;;5075170;28;20601;-82
2022/11/25 10:03:35;;;;;;;3.70;2.40;;;22.80;99.90;;;;;;5079065;28;20201;-82
2022/11/25 10:06:09;;;;;;;8.57;2.38;;;22.80;99.90;;;;;;5076281;28;20196;-82
2022/11/25 10:08:43;;;;;;;7.88;2.47;;;22.80;99.90;;;;;;5070645;28;20282;-83
2022/11/25 10:11:24;;;;;;;4.65;2.28;;;22.80;99.90;;;;;;5070498;28;20231;-83
2022/11/25 10:14:00;;;;;;;4.32;2.10;;;22.80;99.90;;;;;;5066818;28;20200;-83
2022/11/25 10:16:38;;;;;;;5.13;2.17;;;22.80;99.90;;;;;;5081385;28;20195;-84
2022/11/25 10:19:19;;;;;;;3.33;2.38;;;22.80;99.90;;;;;;5076620;28;20223;-84
2022/11/25 10:21:51;;;;;;;4.57;2.30;;;22.80;99.90;;;;;;5074569;28;20192;-84
2022/11/25 10:24:22;;;;;;;4.85;2.20;;;22.90;99.90;;;;;;5057452;28;20572;-84
2022/11/25 10:26:59;;;;;;;5.75;2.50;;;22.90;99.90;;;;;;5080442;28;20203;-84
2022/11/25 10:29:33;;;;;;;3.88;2.00;;;22.90;99.90;;;;;;5065246;28;20252;-84
2022/11/25 10:32:21;;;;;;;4.15;2.25;;;22.80;99.90;;;;;;5077806;28;20204;-84
2022/11/25 10:34:59;;;;;;;3.55;2.30;;;22.80;99.90;;;;;;5072445;28;20200;-83
2022/11/25 10:37:33;;;;;;;4.78;2.40;;;22.70;99.90;;;;;;5064345;28;20199;-84
2022/11/25 10:40:04;;;;;;;4.63;2.22;;;22.70;99.90;;;;;;5062588;28;20211;-84
2022/11/25 10:42:35;;;;;;;3.80;2.20;;;22.70;99.90;;;;;;5074156;28;20196;-84
2022/11/25 10:45:07;;;;;;;4.32;2.25;;;22.70;99.90;;;;;;5077158;28;20200;-84
2022/11/25 10:47:45;;;;;;;4.13;2.22;;;22.60;99.90;;;;;;5095118;28;20275;-83
2022/11/25 10:50:26;;;;;;;4.95;2.30;;;22.60;99.90;;;;;;5091154;28;20646;-83
2022/11/25 10:53:02;;;;;;;4.13;2.25;;;22.60;99.90;;;;;;5082778;28;20199;-83
2022/11/25 10:55:33;;;;;;;4.88;2.53;;;22.60;99.90;;;;;;5055414;28;20199;-83
2022/11/25 10:58:28;;;;;;;3.20;2.35;;;22.60;99.90;;;;;;5060548;28;20192;-83
2022/11/25 11:01:07;;;;;;;7.25;2.50;;;22.50;99.90;;;;;;5050112;28;20206;-84
2022/11/25 11:03:39;;;;;;;3.63;2.10;;;22.50;99.90;;;;;;5050555;28;20279;-83
2022/11/25 11:06:32;;;;;;;4.78;2.00;;;22.50;99.90;;;;;;5053773;28;20594;-85
2022/11/25 11:09:03;;;;;;;4.95;2.22;;;22.50;99.90;;;;;;5055703;28;20196;-85
2022/11/25 11:11:34;;;;;;;5.65;2.30;;;22.50;99.90;;;;;;5053800;28;20193;-84
2022/11/25 11:14:21;;;;;;;5.13;1.70;;;22.50;99.90;;;;;;5055138;28;20696;-84
2022/11/25 11:16:58;;;;;;;3.88;2.20;;;22.50;99.90;;;;;;5058425;28;20235;-84
2022/11/25 11:19:30;;;;;;;7.25;2.20;;;22.60;99.90;;;;;;5068078;28;20222;-85
2022/11/25 11:22:19;;;;;;;4.60;2.30;;;22.60;99.90;;;;;;5048741;28;20675;-86
2022/11/25 11:24:50;;;;;;;6.00;2.20;;;22.60;99.90;;;;;;5040087;28;20212;-85
2022/11/25 11:27:24;;;;;;;5.40;2.28;;;22.60;99.90;;;;;;5026119;28;20193;-85
2022/11/25 11:30:11;;;;;;;4.38;2.05;;;22.50;99.90;;;;;;5051856;28;20259;-83
2022/11/25 11:32:46;;;;;;;4.45;2.25;;;22.50;99.90;;;;;;5044478;28;20215;-85
2022/11/25 11:35:29;;;;;;;5.30;2.22;;;22.50;99.90;;;;;;5053628;28;20203;-84
2022/11/25 11:38:08;;;;;;;3.97;2.00;;;22.40;99.90;;;;;;5047304;28;20200;-85
2022/11/25 11:40:45;;;;;;;4.38;2.15;;;22.40;99.90;;;;;;5042343;28;20231;-85
2022/11/25 11:43:41;;;;;;;3.92;1.80;;;22.40;99.90;;;;;;5045265;28;20252;-85
2022/11/25 11:46:27;;;;;;;4.28;2.13;;;22.40;99.90;;;;;;5042592;28;20196;-85
2022/11/25 11:49:11;;;;;;;5.13;2.17;;;22.50;99.90;;;;;;5046936;28;20732;-84
2022/11/25 11:51:47;;;;;;;6.60;2.58;;;22.40;99.90;;;;;;5046595;28;20193;-86
2022/11/25 11:54:26;;;;;;;5.45;2.08;;;22.40;99.90;;;;;;5055970;28;20230;-85
2022/11/25 11:57:01;;;;;;;3.75;2.08;;;22.40;99.90;;;;;;5067576;28;20203;-84
2022/11/25 11:59:54;;;;;;;3.72;2.00;;;22.50;99.90;;;;;;5072347;28;20780;-83
2022/11/25 12:02:40;;;;;;;6.43;2.33;;;22.50;99.90;;;;;;5066245;28;20249;-83
2022/11/25 12:05:20;;;;;;;5.32;2.35;;;22.50;99.90;;;;;;5063177;28;20201;-83
2022/11/25 12:08:04;;;;;;;8.50;2.42;;;22.40;99.90;;;;;;5065181;28;20192;-82
2022/11/25 12:10:43;;;;;;;5.53;2.35;;;22.40;99.90;;;;;;5069494;28;20234;-83
2022/11/25 12:13:21;;;;;;;4.60;2.22;;;22.40;99.90;;;;;;5066448;28;20204;-83
2022/11/25 12:15:57;;;;;;;5.30;2.47;;;22.30;99.90;;;;;;5066938;28;20196;-83
2022/11/25 12:18:41;;;;;;;7.63;3.00;;;22.30;99.90;;;;;;5074363;28;20206;-83
2022/11/25 12:21:25;;;;;;;7.13;2.58;;;22.30;99.90;;;;;;5075724;28;20219;-82
2022/11/25 12:24:03;;;;;;;5.20;2.30;;;22.20;99.90;;;;;;5060761;28;20706;-83
2022/11/25 12:26:42;;;;;;;5.90;2.50;;;22.20;99.90;;;;;;5077680;28;20274;-83
2022/11/25 12:29:25;;;;;;;6.05;2.40;;;22.20;99.90;;;;;;5072854;28;20247;-82
2022/11/25 12:35:50;;;;;;;6.10;2.38;;;22.20;99.90;;;;;;5060295;28;20203;-82
2022/11/25 12:38:40;;;;;;;5.85;2.70;;;22.20;99.90;;;;;;5071902;28;20196;-82
2022/11/25 12:41:21;;;;;;;6.75;2.83;;;22.10;99.90;;;;;;5078002;28;20246;-81
2022/11/25 12:43:59;;;;;;;9.27;2.60;;;22.10;99.90;;;;;;5072648;28;20199;-82
2022/11/25 12:46:37;;;;;;;8.10;2.63;;;22.10;99.90;;;;;;5065421;28;20264;-82
2022/11/25 12:49:16;;;;;;;5.35;2.15;;;22.10;99.90;;;;;;5055921;28;20253;-82
2022/11/25 12:52:12;;;;;;;3.97;2.25;;;22.10;99.90;;;;;;5068343;28;20196;-82
2022/11/25 12:55:06;;;;;;;6.28;2.50;;;22.20;99.90;;;;;;5052876;28;20236;-83
2022/11/25 12:58:05;;;;;;;6.20;2.50;;;22.10;99.90;;;;;;5068215;28;20246;-81
2022/11/25 13:00:50;;;;;;;5.70;2.38;;;22.10;99.90;;;;;;5057710;28;20215;-82
2022/11/25 13:03:59;;;;;;;4.68;2.50;;;22.10;99.90;;;;;;5068698;28;20673;-81
2022/11/25 13:07:00;;;;;;;4.95;2.55;;;22.00;99.90;;;;;;5071131;28;20184;-83
2022/11/25 13:10:04;;;;;;;6.13;2.20;;;22.10;99.90;;;;;;5025834;28;20572;-83
2022/11/25 13:12:47;;;;;;;6.88;2.60;;;22.10;99.90;;;;;;5049488;28;20462;-82
2022/11/25 13:15:29;;;;;;;5.40;2.47;;;22.10;99.90;;;;;;5059179;28;20203;-82
2022/11/25 13:18:05;;;;;;;4.55;2.45;;;22.00;99.90;;;;;;5066686;28;20206;-81
2022/11/25 13:20:50;;;;;;;6.93;2.42;;;22.00;99.90;;;;;;5051069;28;20234;-81
2022/11/25 13:23:29;;;;;;;5.63;2.38;;;22.00;99.90;;;;;;5078637;28;20264;-81
2022/11/25 13:26:39;;;;;;;4.72;2.30;;;21.90;99.90;;;;;;5076435;28;20202;-81
2022/11/25 13:29:56;;;;;;;3.28;2.20;;;21.90;99.90;;;;;;5051125;28;20593;-81
2022/11/25 13:32:42;;;;;;;5.70;2.60;;;21.90;99.90;;;;;;5021002;28;20214;-82
2022/11/25 13:35:48;;;;;;;5.18;2.20;;;21.90;99.90;;;;;;5059098;28;20249;-82
2022/11/25 13:38:55;;;;;;;5.20;2.40;;;21.80;99.90;;;;;;5065046;28;20639;-82
2022/11/25 13:41:50;;;;;;;3.55;2.33;;;21.80;99.90;;;;;;5068894;28;20219;-82
2022/11/25 13:44:34;;;;;;;4.38;2.25;;;21.80;99.90;;;;;;5068527;28;20574;-82
2022/11/25 13:47:31;;;;;;;5.25;2.30;;;21.80;99.90;;;;;;5078334;28;20192;-81